createdAt,value
2018-05-03T00:02:10.561Z,11.70
2018-05-03T00:05:16.525Z,11.70
2018-05-03T00:08:22.676Z,11.70
2018-05-03T00:11:28.757Z,11.70
2018-05-03T00:14:34.025Z,11.70
2018-05-03T00:17:40.115Z,11.60
2018-05-03T00:20:46.412Z,11.70
2018-05-03T00:23:53.161Z,11.60
2018-05-03T00:26:59.118Z,11.60
2018-05-03T00:30:05.142Z,11.70
2018-05-03T00:33:11.111Z,11.70
2018-05-03T00:36:17.077Z,11.70
2018-05-03T00:39:23.459Z,11.70
2018-05-03T00:42:29.433Z,11.60
2018-05-03T00:45:35.390Z,11.70
2018-05-03T00:48:41.516Z,11.70
2018-05-03T00:51:48.683Z,11.70
2018-05-03T00:55:03.803Z,11.60
2018-05-03T00:58:10.097Z,11.50
2018-05-03T01:01:16.095Z,11.50
2018-05-03T01:04:22.059Z,11.50
2018-05-03T01:07:27.905Z,11.50
2018-05-03T01:10:33.865Z,11.50
2018-05-03T01:13:39.145Z,11.60
2018-05-03T01:16:45.286Z,11.50
2018-05-03T01:19:51.239Z,11.50
2018-05-03T01:22:57.548Z,11.50
2018-05-03T01:26:03.552Z,11.50
2018-05-03T01:29:09.675Z,11.50
2018-05-03T01:32:15.619Z,11.50
2018-05-03T01:35:33.799Z,11.50
2018-05-03T01:38:39.287Z,11.50
2018-05-03T01:41:45.264Z,11.50
2018-05-03T01:44:51.441Z,11.40
2018-05-03T01:47:57.575Z,11.40
2018-05-03T01:51:03.568Z,11.40
2018-05-03T01:54:15.505Z,11.40
2018-05-03T01:57:21.649Z,11.40
2018-05-03T02:00:27.784Z,11.40
2018-05-03T02:03:33.989Z,11.40
2018-05-03T02:06:39.882Z,11.30
2018-05-03T02:09:46.019Z,11.30
2018-05-03T02:12:52.021Z,11.40
2018-05-03T02:15:58.126Z,11.40
2018-05-03T02:19:03.416Z,11.40
2018-05-03T02:22:09.557Z,11.40
2018-05-03T02:25:15.365Z,11.30
2018-05-03T02:28:21.374Z,11.30
2018-05-03T02:31:27.250Z,11.30
2018-05-03T02:34:33.290Z,11.30
2018-05-03T02:37:39.457Z,11.30
2018-05-03T02:40:45.439Z,11.30
2018-05-03T02:43:51.455Z,11.30
2018-05-03T02:46:57.799Z,11.30
2018-05-03T02:50:03.766Z,11.20
2018-05-03T02:53:09.874Z,11.20
2018-05-03T02:56:15.824Z,11.20
2018-05-03T02:59:33.313Z,11.20
2018-05-03T03:02:44.999Z,11.20
2018-05-03T03:06:03.451Z,11.20
2018-05-03T03:17:19.893Z,11.30
2018-05-03T03:20:43.664Z,11.30
2018-05-03T03:24:07.311Z,11.20
2018-05-03T03:27:30.781Z,11.30
2018-05-03T03:30:54.007Z,11.30
2018-05-03T03:34:28.049Z,11.30
2018-05-03T03:37:55.027Z,11.30
2018-05-03T03:41:12.529Z,11.20
2018-05-03T03:44:29.935Z,11.20
2018-05-03T03:47:35.363Z,11.20
2018-05-03T03:50:41.252Z,11.30
2018-05-03T03:53:47.208Z,11.20
2018-05-03T03:56:53.139Z,11.20
2018-05-03T03:59:58.928Z,11.20
2018-05-03T04:03:06.100Z,11.20
2018-05-03T04:06:12.099Z,11.20
2018-05-03T04:09:17.955Z,11.30
2018-05-03T04:12:24.169Z,11.40
2018-05-03T04:15:30.111Z,11.30
2018-05-03T04:18:48.258Z,11.30
2018-05-03T04:22:06.423Z,11.20
2018-05-03T04:25:25.101Z,11.10
2018-05-03T04:28:30.913Z,11.20
2018-05-03T04:31:36.984Z,11.10
2018-05-03T04:34:42.810Z,11.10
2018-05-03T04:37:48.868Z,11.20
2018-05-03T04:40:54.898Z,11.20
2018-05-03T04:44:00.949Z,11.30
2018-05-03T04:47:07.115Z,11.30
2018-05-03T04:50:13.110Z,11.50
2018-05-03T04:53:18.955Z,11.60
2018-05-03T04:56:25.073Z,11.80
2018-05-03T04:59:31.077Z,11.90
2018-05-03T05:02:38.064Z,11.90
2018-05-03T05:05:43.942Z,11.90
2018-05-03T05:08:49.946Z,11.90
2018-05-03T05:11:55.941Z,12.00
2018-05-03T05:15:01.978Z,11.90
2018-05-03T05:18:07.831Z,12.00
2018-05-03T05:21:13.841Z,12.00
2018-05-03T05:24:19.866Z,12.00
2018-05-03T05:27:26.014Z,12.00
2018-05-03T05:30:31.990Z,12.00
2018-05-03T05:33:38.248Z,12.00
2018-05-03T05:36:44.046Z,12.00
2018-05-03T05:39:50.106Z,12.00
2018-05-03T05:42:56.084Z,12.00
2018-05-03T05:46:02.195Z,12.10
2018-05-03T05:49:09.240Z,12.30
2018-05-03T05:52:15.277Z,12.30
2018-05-03T05:55:22.551Z,12.70
2018-05-03T05:58:29.553Z,12.60
2018-05-03T06:01:35.484Z,12.60
2018-05-03T06:04:42.468Z,12.70
2018-05-03T06:07:50.784Z,12.70
2018-05-03T06:10:57.326Z,12.70
2018-05-03T06:14:03.344Z,12.60
2018-05-03T06:17:09.494Z,12.70
2018-05-03T06:20:15.513Z,13.00
2018-05-03T06:23:21.664Z,12.90
2018-05-03T06:26:28.732Z,13.00
2018-05-03T06:29:35.562Z,13.00
2018-05-03T06:32:41.626Z,13.20
2018-05-03T06:35:49.585Z,13.10
2018-05-03T06:38:55.493Z,13.10
2018-05-03T06:42:02.729Z,13.30
2018-05-03T06:45:09.650Z,13.20
2018-05-03T06:48:16.409Z,13.30
2018-05-03T06:51:22.150Z,13.60
2018-05-03T06:54:28.151Z,13.80
2018-05-03T06:57:34.161Z,13.80
2018-05-03T07:00:40.204Z,13.80
2018-05-03T07:03:46.176Z,13.60
2018-05-03T07:06:53.205Z,13.40
2018-05-03T07:09:59.237Z,13.50
2018-05-03T07:13:05.042Z,13.50
2018-05-03T07:16:11.935Z,13.40
2018-05-03T07:19:18.103Z,13.30
2018-05-03T07:22:24.077Z,13.30
2018-05-03T07:25:30.063Z,13.40
2018-05-03T07:28:35.957Z,13.40
2018-05-03T07:31:42.205Z,13.60
2018-05-03T07:34:48.293Z,13.60
2018-05-03T07:37:54.304Z,13.70
2018-05-03T07:41:00.299Z,13.70
2018-05-03T07:44:06.192Z,14.00
2018-05-03T07:47:19.122Z,14.00
2018-05-03T07:50:25.175Z,14.20
2018-05-03T07:53:31.126Z,14.40
2018-05-03T07:56:37.001Z,14.60
2018-05-03T07:59:42.887Z,15.00
2018-05-03T08:02:48.794Z,15.20
2018-05-03T08:05:55.092Z,15.70
2018-05-03T08:09:01.127Z,15.60
2018-05-03T08:12:07.995Z,15.50
2018-05-03T08:15:13.706Z,15.40
2018-05-03T08:18:19.957Z,15.80
2018-05-03T08:21:25.646Z,16.00
2018-05-03T08:24:31.803Z,15.90
2018-05-03T08:27:37.635Z,16.30
2018-05-03T08:30:44.623Z,16.50
2018-05-03T08:33:50.817Z,16.60
2018-05-03T08:36:57.042Z,16.70
2018-05-03T08:40:02.882Z,17.10
2018-05-03T08:43:09.038Z,17.90
2018-05-03T08:46:14.963Z,18.30
2018-05-03T08:49:21.075Z,18.20
2018-05-03T08:52:28.142Z,17.90
2018-05-03T08:55:33.401Z,17.90
2018-05-03T08:58:38.802Z,17.80
2018-05-03T09:01:45.116Z,18.00
2018-05-03T09:04:50.984Z,18.00
2018-05-03T09:07:56.860Z,18.30
2018-05-03T09:11:03.036Z,18.40
2018-05-03T09:14:09.894Z,18.80
2018-05-03T09:17:16.253Z,18.80
2018-05-03T09:20:22.305Z,19.30
2018-05-03T09:23:28.367Z,19.10
2018-05-03T09:26:34.473Z,19.10
2018-05-03T09:29:40.751Z,19.30
2018-05-03T09:32:46.793Z,19.90
2018-05-03T09:35:51.983Z,20.20
2018-05-03T09:38:58.176Z,20.60
2018-05-03T09:42:04.183Z,20.10
2018-05-03T09:45:10.265Z,19.50
2018-05-03T09:48:16.279Z,20.60
2018-05-03T09:51:22.350Z,20.60
2018-05-03T09:54:29.199Z,21.50
2018-05-03T09:57:35.995Z,21.90
2018-05-03T10:00:42.294Z,21.90
2018-05-03T10:03:48.592Z,20.80
2018-05-03T10:06:54.628Z,20.80
2018-05-03T10:10:00.706Z,20.70
2018-05-03T10:13:06.618Z,22.00
2018-05-03T10:16:12.842Z,22.00
2018-05-03T10:19:19.079Z,22.60
2018-05-03T10:22:25.281Z,22.60
2018-05-03T10:25:31.433Z,21.50
2018-05-03T10:28:37.308Z,22.10
2018-05-03T10:31:44.358Z,23.20
2018-05-03T10:34:50.388Z,23.70
2018-05-03T10:37:56.420Z,23.20
2018-05-03T10:41:03.431Z,23.50
2018-05-03T10:44:08.938Z,23.50
2018-05-03T10:47:14.854Z,23.70
2018-05-03T10:50:20.988Z,23.30
2018-05-03T10:53:27.175Z,23.30
2018-05-03T10:56:33.380Z,23.30
2018-05-03T10:59:39.543Z,23.90
2018-05-03T11:02:45.760Z,23.90
2018-05-03T11:05:51.757Z,23.40
2018-05-03T11:08:57.653Z,23.70
2018-05-03T11:12:03.612Z,23.90
2018-05-03T11:15:09.499Z,23.80
2018-05-03T11:18:16.223Z,23.50
2018-05-03T11:21:22.302Z,23.50
2018-05-03T11:24:27.670Z,22.50
2018-05-03T11:27:33.825Z,22.80
2018-05-03T11:30:39.123Z,23.20
2018-05-03T11:33:45.572Z,22.60
2018-05-03T11:36:51.765Z,22.60
2018-05-03T11:39:57.856Z,22.00
2018-05-03T11:43:04.043Z,21.60
2018-05-03T11:46:10.183Z,21.50
2018-05-03T11:49:17.334Z,20.70
2018-05-03T11:52:24.182Z,20.20
2018-05-03T11:55:30.373Z,20.00
2018-05-03T11:58:36.208Z,19.90
2018-05-03T12:01:42.241Z,20.60
2018-05-03T12:04:48.290Z,20.60
2018-05-03T12:07:54.391Z,22.20
2018-05-03T12:11:00.320Z,22.20
2018-05-03T12:14:06.270Z,23.40
2018-05-03T12:17:12.255Z,23.30
2018-05-03T12:20:19.292Z,23.10
2018-05-03T12:23:25.257Z,22.20
2018-05-03T12:26:32.266Z,22.80
2018-05-03T12:29:38.281Z,22.80
2018-05-03T12:32:44.150Z,22.90
2018-05-03T12:35:50.290Z,22.80
2018-05-03T12:38:56.458Z,22.70
2018-05-03T12:42:03.403Z,22.70
2018-05-03T12:45:09.325Z,22.60
2018-05-03T12:48:15.361Z,22.30
2018-05-03T12:51:21.293Z,21.60
2018-05-03T12:54:27.277Z,20.70
2018-05-03T12:57:33.388Z,20.60
2018-05-03T13:00:39.457Z,21.00
2018-05-03T13:03:54.605Z,21.90
2018-05-03T13:07:01.761Z,21.80
2018-05-03T13:10:07.302Z,23.70
2018-05-03T13:13:12.522Z,24.50
2018-05-03T13:16:18.742Z,23.80
2018-05-03T13:19:25.047Z,22.70
2018-05-03T13:22:31.028Z,22.70
2018-05-03T13:25:37.104Z,22.30
2018-05-03T13:28:43.371Z,21.70
2018-05-03T13:31:49.589Z,21.50
2018-05-03T13:34:55.958Z,21.20
2018-05-03T13:38:01.986Z,21.10
2018-05-03T13:41:07.969Z,21.40
2018-05-03T13:44:14.032Z,21.40
2018-05-03T13:47:20.221Z,21.00
2018-05-03T13:50:26.182Z,21.00
2018-05-03T13:53:32.405Z,20.90
2018-05-03T13:56:38.539Z,20.40
2018-05-03T13:59:44.713Z,20.40
2018-05-03T14:02:50.698Z,20.00
2018-05-03T14:05:57.030Z,19.80
2018-05-03T14:09:03.250Z,19.80
2018-05-03T14:12:09.106Z,19.70
2018-05-03T14:15:15.299Z,19.70
2018-05-03T14:18:21.224Z,20.10
2018-05-03T14:21:27.445Z,20.20
2018-05-03T14:24:33.671Z,20.10
2018-05-03T14:27:39.802Z,20.20
2018-05-03T14:30:46.803Z,20.30
2018-05-03T14:33:52.811Z,20.30
2018-05-03T14:36:58.979Z,20.10
2018-05-03T14:40:05.239Z,20.30
2018-05-03T14:43:11.164Z,20.00
2018-05-03T14:46:17.086Z,20.00
2018-05-03T14:49:23.355Z,20.10
2018-05-03T14:52:29.207Z,20.30
2018-05-03T14:55:35.492Z,19.80
2018-05-03T14:58:41.741Z,19.70
2018-05-03T15:01:49.444Z,20.20
2018-05-03T15:04:56.251Z,20.10
2018-05-03T15:08:02.318Z,20.00
2018-05-03T15:11:08.197Z,21.90
2018-05-03T15:14:14.056Z,21.90
2018-05-03T15:17:20.284Z,23.30
2018-05-03T15:20:26.384Z,23.80
2018-05-03T15:23:32.496Z,23.70
2018-05-03T15:26:38.615Z,22.80
2018-05-03T15:29:44.755Z,22.70
2018-05-03T15:32:51.002Z,21.30
2018-05-03T15:35:56.867Z,20.50
2018-05-03T15:39:03.768Z,19.60
2018-05-03T15:42:09.830Z,19.60
2018-05-03T15:45:15.983Z,19.50
2018-05-03T15:48:21.996Z,19.40
2018-05-03T15:51:28.108Z,19.30
2018-05-03T15:54:34.130Z,19.50
2018-05-03T15:57:40.156Z,19.10
2018-05-03T16:00:46.321Z,18.50
2018-05-03T16:03:52.226Z,18.40
2018-05-03T16:06:57.558Z,18.40
2018-05-03T16:10:03.671Z,18.30
2018-05-03T16:13:11.021Z,18.00
2018-05-03T16:16:16.628Z,17.90
2018-05-03T16:19:22.923Z,17.70
2018-05-03T16:22:29.968Z,17.60
2018-05-03T16:25:35.717Z,17.40
2018-05-03T16:28:41.694Z,17.20
2018-05-03T16:31:47.826Z,17.10
2018-05-03T16:34:54.127Z,17.10
2018-05-03T16:37:59.885Z,17.00
2018-05-03T16:41:05.945Z,17.00
2018-05-03T16:44:12.304Z,17.10
2018-05-03T16:47:19.569Z,17.10
2018-05-03T16:50:25.398Z,17.20
2018-05-03T16:53:31.380Z,17.20
2018-05-03T16:56:38.600Z,17.20
2018-05-03T16:59:44.571Z,17.20
2018-05-03T17:02:50.701Z,17.20
2018-05-03T17:05:57.680Z,17.20
2018-05-03T17:09:03.852Z,17.20
2018-05-03T17:12:09.672Z,17.20
2018-05-03T17:15:15.865Z,17.10
2018-05-03T17:18:21.980Z,17.10
2018-05-03T17:21:29.935Z,17.10
2018-05-03T17:24:37.181Z,17.00
2018-05-03T17:27:43.246Z,17.00
2018-05-03T17:30:50.221Z,17.00
2018-05-03T17:33:56.078Z,16.90
2018-05-03T17:37:03.143Z,16.90
2018-05-03T17:40:10.698Z,16.70
2018-05-03T17:43:17.499Z,16.70
2018-05-03T17:46:24.626Z,16.60
2018-05-03T17:49:31.135Z,16.60
2018-05-03T17:52:37.927Z,16.50
2018-05-03T17:55:45.910Z,16.40
2018-05-03T17:58:51.880Z,16.50
2018-05-03T18:01:57.819Z,16.40
2018-05-03T18:05:03.721Z,16.40
2018-05-03T18:08:09.725Z,16.30
2018-05-03T18:11:15.425Z,16.30
2018-05-03T18:14:21.420Z,16.20
2018-05-03T18:17:27.565Z,16.10
2018-05-03T18:20:34.428Z,15.90
2018-05-03T18:23:40.377Z,15.90
2018-05-03T18:26:48.754Z,15.90
2018-05-03T18:29:55.611Z,15.80
2018-05-03T18:33:01.518Z,15.80
2018-05-03T18:36:07.532Z,15.70
2018-05-03T18:39:13.357Z,15.70
2018-05-03T18:42:19.059Z,15.70
2018-05-03T18:45:25.377Z,15.70
2018-05-03T18:48:32.311Z,15.70
2018-05-03T18:51:41.775Z,15.80
2018-05-03T18:54:48.591Z,15.80
2018-05-03T18:57:56.313Z,15.80
2018-05-03T19:01:06.653Z,15.80
2018-05-03T19:04:28.729Z,15.70
2018-05-03T19:07:35.771Z,15.60
2018-05-03T19:10:41.769Z,15.60
2018-05-03T19:13:47.856Z,15.60
2018-05-03T19:16:54.908Z,15.60
2018-05-03T19:20:01.258Z,15.60
2018-05-03T19:23:07.204Z,15.60
2018-05-03T19:26:13.369Z,15.60
2018-05-03T19:29:20.237Z,15.70
2018-05-03T19:32:26.415Z,15.60
2018-05-03T19:35:34.384Z,15.50
2018-05-03T19:38:40.379Z,15.50
2018-05-03T19:41:46.728Z,15.50
2018-05-03T19:44:53.395Z,15.50
2018-05-03T19:47:59.619Z,15.60
2018-05-03T19:51:07.838Z,15.50
2018-05-03T19:54:12.917Z,15.50
2018-05-03T19:57:19.138Z,15.50
2018-05-03T20:00:25.577Z,15.50
2018-05-03T20:03:32.590Z,15.40
2018-05-03T20:06:39.383Z,15.40
2018-05-03T20:09:46.805Z,15.50
2018-05-03T20:12:55.533Z,15.50
2018-05-03T20:16:02.170Z,15.60
2018-05-03T20:19:08.970Z,15.50
2018-05-03T20:22:14.652Z,15.50
2018-05-03T20:25:20.885Z,15.50
2018-05-03T20:28:27.746Z,15.50
2018-05-03T20:31:35.880Z,15.50
2018-05-03T20:34:43.281Z,15.40
2018-05-03T20:37:49.941Z,15.40
2018-05-03T20:40:57.277Z,15.50
2018-05-03T20:44:07.297Z,15.50
2018-05-03T20:47:15.461Z,15.50
2018-05-03T20:50:23.340Z,15.50
2018-05-03T20:53:29.560Z,15.50
2018-05-03T20:56:36.073Z,15.40
2018-05-03T20:59:42.344Z,15.40
2018-05-03T21:02:48.635Z,15.40
2018-05-03T21:05:55.534Z,15.30
2018-05-03T21:09:01.787Z,15.30
2018-05-03T21:12:08.773Z,15.30
2018-05-03T21:15:16.786Z,15.20
2018-05-03T21:18:25.428Z,15.20
2018-05-03T21:21:33.475Z,15.20
2018-05-03T21:24:40.874Z,15.20
2018-05-03T21:27:59.074Z,15.20
2018-05-03T21:31:07.272Z,15.10
2018-05-03T21:34:14.986Z,15.00
2018-05-03T21:37:22.195Z,15.00
2018-05-03T21:40:29.324Z,15.00
2018-05-03T21:43:38.747Z,15.00
2018-05-03T21:46:46.231Z,15.00
2018-05-03T21:49:53.609Z,15.00
2018-05-03T21:53:00.795Z,15.00
2018-05-03T21:56:08.838Z,14.90
2018-05-03T21:59:17.322Z,14.90
2018-05-03T22:02:25.763Z,14.90
2018-05-03T22:05:31.913Z,14.80
2018-05-03T22:08:38.135Z,14.80
2018-05-03T22:11:44.131Z,14.80
2018-05-03T22:14:51.349Z,14.70
2018-05-03T22:17:56.755Z,14.70
2018-05-03T22:21:02.797Z,14.70
2018-05-03T22:24:08.616Z,14.70
2018-05-03T22:27:14.988Z,14.60
2018-05-03T22:30:21.323Z,14.60
2018-05-03T22:33:28.165Z,14.50
2018-05-03T22:36:34.358Z,14.50
2018-05-03T22:39:41.226Z,14.50
2018-05-03T22:42:48.634Z,14.40
2018-05-03T22:45:54.826Z,14.40
2018-05-03T22:49:01.057Z,14.40
2018-05-03T22:52:10.216Z,14.40
2018-05-03T22:55:16.349Z,14.40
2018-05-03T22:58:22.640Z,14.30
2018-05-03T23:01:28.642Z,14.30
2018-05-03T23:04:34.743Z,14.20
2018-05-03T23:07:40.728Z,14.20
2018-05-03T23:10:46.739Z,14.30
2018-05-03T23:13:52.857Z,14.30
2018-05-03T23:16:59.047Z,14.30
2018-05-03T23:20:05.438Z,14.30
2018-05-03T23:23:11.518Z,14.30
2018-05-03T23:26:17.632Z,14.30
2018-05-03T23:29:24.015Z,14.30
2018-05-03T23:32:29.974Z,14.20
2018-05-03T23:35:36.131Z,14.20
2018-05-03T23:38:42.054Z,14.20
2018-05-03T23:41:48.109Z,14.20
2018-05-03T23:44:54.212Z,14.10
2018-05-03T23:48:00.293Z,14.00
2018-05-03T23:51:06.398Z,14.00
2018-05-03T23:54:12.476Z,14.00
2018-05-03T23:57:19.365Z,14.00
